Time;durP1;ratioP1;P1;durP2;ratioP2;P2;SDS_P1;SDS_P2;PMS_P1;PMS_P2;Temp;Humidity;BMP_temperature;BMP_pressure;BME280_temperature;BME280_humidity;BME280_pressure;Samples;Min_cycle;Max_cycle;Signal;HPM_P1;HPM_P2
2022/08/20 00:01:25;;;;;;;0.00;0.00;;;;;;;17.23;63.05;100732.47;7370974;19;20097;-61
2022/08/20 00:03:51;;;;;;;0.00;0.00;;;;;;;17.28;63.31;100733.94;7371133;19;20010;-61
2022/08/20 00:06:20;;;;;;;0.00;0.00;;;;;;;17.32;63.38;100724.09;7370270;19;20040;-62
2022/08/20 00:08:45;;;;;;;0.00;0.00;;;;;;;17.34;63.31;100727.53;7370916;19;20439;-61
2022/08/20 00:11:14;;;;;;;0.10;0.10;;;;;;;17.36;63.24;100723.88;7370573;19;20017;-61
2022/08/20 00:13:43;;;;;;;0.00;0.00;;;;;;;17.40;63.59;100729.00;7370933;19;20035;-62
2022/08/20 00:16:09;;;;;;;0.00;0.00;;;;;;;17.41;63.74;100733.34;7369882;19;20370;-61
2022/08/20 00:18:37;;;;;;;0.00;0.00;;;;;;;17.38;63.41;100719.34;7371725;19;20423;-62
2022/08/20 00:21:07;;;;;;;0.00;0.00;;;;;;;17.31;63.25;100696.00;7369390;19;20006;-62
2022/08/20 00:23:35;;;;;;;0.00;0.00;;;;;;;17.43;62.68;100726.19;7370275;19;20026;-62
2022/08/20 00:26:00;;;;;;;0.00;0.00;;;;;;;17.41;63.40;100714.88;7370736;19;20022;-62
2022/08/20 00:28:26;;;;;;;0.00;0.00;;;;;;;17.33;63.56;100704.69;7370670;19;20415;-62
2022/08/20 00:30:51;;;;;;;0.00;0.00;;;;;;;17.41;63.43;100712.22;7369571;19;20010;-61
2022/08/20 00:33:19;;;;;;;0.00;0.00;;;;;;;17.41;63.28;100715.72;7370431;19;20452;-62
2022/08/20 00:35:48;;;;;;;0.00;0.00;;;;;;;17.41;63.65;100717.50;7368900;19;20019;-62
2022/08/20 00:38:13;;;;;;;0.00;0.00;;;;;;;17.28;64.27;100691.72;7369415;19;20782;-62
2022/08/20 00:40:45;;;;;;;0.00;0.00;;;;;;;17.42;63.91;100706.00;7369347;19;20035;-62
2022/08/20 00:43:42;;;;;;;0.08;0.08;;;;;;;17.44;62.01;100714.72;7369636;19;20022;-62
2022/08/20 00:46:16;;;;;;;0.00;0.00;;;;;;;17.42;63.09;100708.66;7267783;19;2004418;-62
2022/08/20 00:48:46;;;;;;;0.00;0.00;;;;;;;17.44;63.82;100706.81;7370052;19;20028;-62
2022/08/20 00:51:37;;;;;;;0.00;0.00;;;;;;;17.49;62.68;100700.34;7367915;19;20014;-62
2022/08/20 00:54:23;;;;;;;0.00;0.00;;;;;;;17.51;62.01;100689.69;7370855;19;20014;-62
2022/08/20 00:56:55;;;;;;;0.00;0.00;;;;;;;17.50;63.16;100678.28;7369684;19;20467;-62
2022/08/20 00:59:26;;;;;;;0.00;0.00;;;;;;;17.51;63.16;100677.34;7369755;19;20299;-62
2022/08/20 01:01:52;;;;;;;0.00;0.00;;;;;;;17.45;63.81;100666.25;7369015;19;20002;-62
2022/08/20 01:04:17;;;;;;;0.05;0.05;;;;;;;17.55;64.34;100667.50;7369583;19;20027;-62
2022/08/20 01:06:43;;;;;;;0.03;0.03;;;;;;;17.50;63.94;100664.25;7365895;19;20014;-61
2022/08/20 01:09:10;;;;;;;0.00;0.00;;;;;;;17.45;63.88;100646.00;7368921;19;21304;-61
2022/08/20 01:11:35;;;;;;;0.00;0.00;;;;;;;17.55;64.00;100678.06;7368902;19;20015;-62
2022/08/20 01:16:58;;;;;;;0.00;0.00;;;;;;;17.57;63.85;100668.25;7265423;19;2004422;-62
2022/08/20 01:19:30;;;;;;;0.03;0.03;;;;;;;17.55;63.30;100673.63;7368243;19;20809;-62
2022/08/20 01:21:58;;;;;;;0.00;0.00;;;;;;;17.45;64.14;100647.78;7364972;19;20006;-62
2022/08/20 01:24:34;;;;;;;0.00;0.00;;;;;;;17.55;63.61;100662.22;7369618;19;20078;-62
2022/08/20 01:27:03;;;;;;;0.00;0.00;;;;;;;17.53;63.87;100657.00;7367934;19;20492;-62
2022/08/20 01:29:35;;;;;;;0.00;0.00;;;;;;;17.46;63.58;100647.69;7368634;19;20023;-62
2022/08/20 01:32:03;;;;;;;0.00;0.00;;;;;;;17.55;63.99;100668.34;7366159;19;20109;-62
2022/08/20 01:34:28;;;;;;;0.00;0.00;;;;;;;17.56;64.42;100663.91;7367793;19;20787;-62
2022/08/20 01:36:56;;;;;;;0.00;0.00;;;;;;;17.59;64.33;100659.34;7367310;19;20010;-62
2022/08/20 01:39:31;;;;;;;0.00;0.00;;;;;;;17.62;63.59;100653.88;7368793;19;20367;-62
2022/08/20 01:42:13;;;;;;;0.00;0.00;;;;;;;17.66;63.00;100649.28;7367078;19;20010;-62
2022/08/20 01:44:42;;;;;;;0.00;0.00;;;;;;;17.66;63.84;100649.28;7367965;19;20021;-62
2022/08/20 01:47:18;;;;;;;0.00;0.00;;;;;;;17.72;63.43;100643.69;7368294;19;20852;-62
2022/08/20 01:49:50;;;;;;;0.00;0.00;;;;;;;17.73;63.89;100640.13;7368839;19;20470;-62
2022/08/20 01:52:34;;;;;;;0.10;0.10;;;;;;;17.80;62.75;100645.97;7365608;19;20011;-62
2022/08/20 01:55:00;;;;;;;0.05;0.05;;;;;;;17.78;63.88;100648.66;7368381;19;20010;-62
2022/08/20 01:57:26;;;;;;;0.00;0.00;;;;;;;17.73;63.89;100634.84;7366612;19;20061;-62
2022/08/20 01:59:52;;;;;;;0.00;0.00;;;;;;;17.83;63.76;100643.13;7359757;19;20604;-62
2022/08/20 02:02:18;;;;;;;0.00;0.00;;;;;;;17.83;64.15;100640.50;7364019;19;20540;-62
2022/08/20 02:04:43;;;;;;;0.00;0.00;;;;;;;17.81;63.35;100630.00;7363876;19;20105;-59
2022/08/20 02:07:15;;;;;;;0.00;0.00;;;;;;;17.96;63.50;100635.41;7364808;19;20364;-62
2022/08/20 02:09:43;;;;;;;0.00;0.00;;;;;;;17.85;63.97;100620.16;7367059;19;20027;-62
2022/08/20 02:12:10;;;;;;;0.00;0.00;;;;;;;17.97;63.48;100631.81;7358534;19;20018;-62
2022/08/20 02:14:41;;;;;;;0.00;0.00;;;;;;;18.03;63.53;100631.47;7364532;19;20771;-62
2022/08/20 02:17:08;;;;;;;0.00;0.00;;;;;;;18.05;62.79;100656.91;7366097;19;20594;-62
2022/08/20 02:19:44;;;;;;;0.00;0.00;;;;;;;18.07;63.53;100628.59;7365262;19;20023;-61
2022/08/20 02:22:22;;;;;;;0.00;0.00;;;;;;;18.08;62.76;100627.66;7366049;19;20526;-62
2022/08/20 02:24:48;;;;;;;0.00;0.00;;;;;;;18.05;64.01;100640.19;7366272;19;20042;-61
2022/08/20 02:27:13;;;;;;;0.00;0.00;;;;;;;18.05;63.45;100619.91;7366270;19;22146;-62
2022/08/20 02:29:39;;;;;;;0.03;0.03;;;;;;;18.04;64.22;100625.25;7365875;19;20036;-62
2022/08/20 02:32:06;;;;;;;0.00;0.00;;;;;;;18.05;63.40;100619.06;7365782;19;20034;-62
2022/08/20 02:34:33;;;;;;;0.00;0.00;;;;;;;18.05;64.04;100621.69;7366099;19;20074;-62
2022/08/20 02:36:59;;;;;;;0.10;0.10;;;;;;;18.05;63.84;100614.63;7365115;19;20022;-62
2022/08/20 02:39:25;;;;;;;0.00;0.00;;;;;;;18.05;64.14;100613.78;7366168;19;20031;-62
2022/08/20 02:41:51;;;;;;;0.00;0.00;;;;;;;18.06;63.48;100615.47;7363635;19;20014;-61
2022/08/20 02:44:19;;;;;;;0.00;0.00;;;;;;;18.09;63.68;100610.00;7367026;19;20006;-62
2022/08/20 02:46:45;;;;;;;0.00;0.00;;;;;;;18.07;63.27;100606.59;7360712;19;20574;-62
2022/08/20 02:49:10;;;;;;;0.00;0.00;;;;;;;18.08;63.95;100595.94;7366191;19;20010;-62
2022/08/20 02:51:36;;;;;;;0.00;0.00;;;;;;;18.10;63.22;100593.22;7361692;19;20047;-62
2022/08/20 02:54:01;;;;;;;0.00;0.00;;;;;;;18.10;63.46;100601.16;7366810;19;20021;-62
2022/08/20 02:56:27;;;;;;;0.00;0.00;;;;;;;18.12;63.16;100615.97;7363573;19;20023;-62
2022/08/20 02:58:52;;;;;;;0.00;0.00;;;;;;;18.12;63.46;100599.28;7366340;19;20010;-62
2022/08/20 03:01:17;;;;;;;0.00;0.00;;;;;;;18.09;63.39;100586.22;7364746;19;20370;-62
2022/08/20 03:03:44;;;;;;;0.00;0.00;;;;;;;18.15;63.60;100604.41;7365575;19;20021;-61
2022/08/20 03:06:11;;;;;;;0.00;0.00;;;;;;;18.08;63.45;100576.59;7363371;19;20446;-62
2022/08/20 03:08:37;;;;;;;;;;;;;;;18.22;62.25;100603.09;7365509;19;20518;-61
2022/08/20 03:11:03;;;;;;;0.00;0.00;;;;;;;18.18;63.84;100577.78;7364093;19;19918;-62
2022/08/20 03:13:28;;;;;;;0.00;0.00;;;;;;;18.15;64.19;100584.09;7362884;19;20010;-61
2022/08/20 03:15:58;;;;;;;0.00;0.00;;;;;;;18.17;63.34;100591.09;7361554;19;20026;-62
2022/08/20 03:18:25;;;;;;;0.10;0.10;;;;;;;18.11;63.94;100576.44;7359867;19;20006;-62
2022/08/20 03:20:51;;;;;;;0.10;0.10;;;;;;;17.96;64.10;100572.00;7366043;19;20030;-61
2022/08/20 03:23:19;;;;;;;0.00;0.00;;;;;;;18.05;63.81;100572.34;7363810;19;20018;-62
2022/08/20 03:25:45;;;;;;;0.10;0.10;;;;;;;18.02;64.29;100571.66;7363877;19;20013;-62
2022/08/20 03:28:11;;;;;;;0.00;0.00;;;;;;;17.88;64.22;100549.47;7366730;19;20006;-62
2022/08/20 03:30:36;;;;;;;0.05;0.05;;;;;;;17.95;64.74;100570.31;7365580;19;20014;-62
2022/08/20 03:33:02;;;;;;;0.00;0.00;;;;;;;17.94;64.10;100590.56;7371989;19;20379;-62
2022/08/20 03:35:30;;;;;;;0.00;0.00;;;;;;;17.93;64.51;100572.16;7370024;19;20007;-62
2022/08/20 03:37:56;;;;;;;0.00;0.00;;;;;;;17.91;63.96;100574.91;7371445;19;20030;-61
2022/08/20 03:40:29;;;;;;;0.00;0.00;;;;;;;17.92;64.50;100573.09;7371420;19;20491;-61
2022/08/20 03:42:54;;;;;;;0.00;0.00;;;;;;;17.88;64.89;100575.06;7371432;19;20458;-62
2022/08/20 03:45:21;;;;;;;0.00;0.00;;;;;;;17.89;63.96;100566.19;7371922;19;20091;-62
2022/08/20 03:47:48;;;;;;;0.10;0.10;;;;;;;17.89;64.69;100566.19;7371480;19;20010;-62
2022/08/20 03:50:16;;;;;;;0.00;0.00;;;;;;;17.86;64.74;100564.56;7370886;19;20010;-62
2022/08/20 03:52:41;;;;;;;0.00;0.00;;;;;;;17.87;64.60;100568.06;7371805;19;20014;-61
2022/08/20 03:55:08;;;;;;;0.00;0.00;;;;;;;17.86;64.25;100567.22;7370574;19;20045;-62
2022/08/20 03:57:34;;;;;;;0.00;0.00;;;;;;;17.84;64.38;100573.50;7370719;19;20006;-62
2022/08/20 04:00:01;;;;;;;0.00;0.00;;;;;;;17.83;64.51;100572.66;7371069;19;20035;-62
2022/08/20 04:02:27;;;;;;;0.10;0.10;;;;;;;17.83;64.88;100562.09;7371607;19;20427;-62
2022/08/20 04:04:53;;;;;;;0.00;0.00;;;;;;;17.84;64.55;100563.81;7370141;19;20031;-62
2022/08/20 04:07:26;;;;;;;0.10;0.10;;;;;;;17.87;64.09;100566.28;7371328;19;20022;-61
2022/08/20 04:09:53;;;;;;;0.00;0.00;;;;;;;17.88;64.04;100559.19;7369763;19;20462;-62
2022/08/20 04:12:20;;;;;;;0.00;0.00;;;;;;;17.58;64.38;100508.88;7371075;19;20015;-62
2022/08/20 04:14:45;;;;;;;0.00;0.00;;;;;;;17.88;63.37;100567.97;7371609;19;20832;-62
2022/08/20 04:17:12;;;;;;;0.00;0.00;;;;;;;17.68;63.40;100531.22;7373135;19;20071;-61
2022/08/20 04:19:39;;;;;;;0.00;0.00;;;;;;;17.85;63.74;100565.53;7371828;19;20011;-62
2022/08/20 04:22:06;;;;;;;0.00;0.00;;;;;;;17.84;63.89;100563.81;7369811;19;20090;-62
2022/08/20 04:24:33;;;;;;;0.05;0.05;;;;;;;17.81;64.01;100569.25;7371016;19;20453;-62
2022/08/20 04:27:01;;;;;;;0.08;0.08;;;;;;;17.79;63.64;100573.78;7368837;19;20599;-61
2022/08/20 04:29:27;;;;;;;0.00;0.00;;;;;;;17.76;64.05;100567.81;7371064;19;20496;-61
2022/08/20 04:31:53;;;;;;;0.03;0.03;;;;;;;17.74;63.80;100567.03;7369856;19;21745;-62
2022/08/20 04:34:19;;;;;;;0.00;0.00;;;;;;;17.71;64.03;100568.03;7370810;19;20027;-61
2022/08/20 04:36:48;;;;;;;0.00;0.00;;;;;;;17.70;63.79;100561.03;7369583;19;20010;-62
2022/08/20 04:39:14;;;;;;;0.10;0.10;;;;;;;17.67;63.86;100563.00;7369830;19;20447;-62
2022/08/20 04:41:40;;;;;;;0.00;0.00;;;;;;;17.68;63.82;100562.06;7368990;19;20039;-59
2022/08/20 04:44:07;;;;;;;0.00;0.00;;;;;;;17.66;63.84;100570.06;7371815;19;20566;-61
2022/08/20 04:46:33;;;;;;;0.00;0.00;;;;;;;17.68;63.56;100562.91;7368884;19;20010;-61
2022/08/20 04:49:00;;;;;;;0.03;0.03;;;;;;;17.66;63.82;100554.22;7370249;19;20031;-62
2022/08/20 04:51:25;;;;;;;0.00;0.00;;;;;;;17.66;64.27;100570.06;7368719;19;20010;-60
2022/08/20 04:53:56;;;;;;;0.00;0.00;;;;;;;17.70;64.09;100566.34;7371470;19;20014;-61
2022/08/20 04:56:27;;;;;;;0.00;0.00;;;;;;;17.68;64.08;100576.09;7369694;19;20002;-62
2022/08/20 04:58:55;;;;;;;0.00;0.00;;;;;;;17.69;64.08;100575.19;7370654;19;20014;-61
2022/08/20 05:01:22;;;;;;;0.00;0.00;;;;;;;17.65;64.21;100571.00;7366944;19;20010;-61
2022/08/20 05:03:48;;;;;;;0.00;0.00;;;;;;;17.68;63.81;100570.81;7369649;19;20093;-62
2022/08/20 05:06:15;;;;;;;0.00;0.00;;;;;;;17.67;63.91;100574.41;7369494;19;20086;-61
2022/08/20 05:08:41;;;;;;;0.00;0.00;;;;;;;17.68;63.56;100573.47;7370415;19;20133;-62
2022/08/20 05:11:08;;;;;;;0.00;0.00;;;;;;;17.66;63.94;100570.06;7367755;19;20002;-62
2022/08/20 05:13:34;;;;;;;0.10;0.10;;;;;;;17.63;63.97;100570.22;7370030;19;20113;-62
2022/08/20 05:16:00;;;;;;;0.00;0.00;;;;;;;17.62;63.83;100579.09;7368779;19;20015;-62
2022/08/20 05:18:26;;;;;;;0.00;0.00;;;;;;;17.62;63.07;100568.53;7368017;19;20359;-60
2022/08/20 05:20:53;;;;;;;0.00;0.00;;;;;;;17.59;63.83;100576.63;7370397;19;20017;-62
2022/08/20 05:23:19;;;;;;;0.08;0.08;;;;;;;17.57;63.54;100581.13;7368520;19;20019;-61
2022/08/20 05:25:50;;;;;;;0.00;0.00;;;;;;;17.58;63.71;100580.19;7369262;19;20021;-61
2022/08/20 05:28:19;;;;;;;0.00;0.00;;;;;;;17.56;63.61;100584.69;7367959;19;20019;-62
2022/08/20 05:30:46;;;;;;;0.00;0.00;;;;;;;17.52;63.82;100577.88;7368451;19;20043;-61
2022/08/20 05:33:15;;;;;;;0.00;0.00;;;;;;;17.51;63.74;100594.66;7369172;19;20383;-62
2022/08/20 05:35:41;;;;;;;0.00;0.00;;;;;;;17.48;63.78;100589.53;7368676;19;20018;-62
2022/08/20 05:38:10;;;;;;;0.00;0.00;;;;;;;17.49;63.65;100599.19;7369753;19;20127;-62
2022/08/20 05:40:37;;;;;;;0.00;0.00;;;;;;;17.48;64.03;100613.28;7368727;19;20710;-62
2022/08/20 05:43:03;;;;;;;0.10;0.10;;;;;;;17.47;64.24;100603.66;7367850;19;20030;-60
2022/08/20 05:45:30;;;;;;;0.05;0.05;;;;;;;17.48;64.07;100602.72;7369459;19;20018;-62
2022/08/20 05:47:55;;;;;;;0.00;0.00;;;;;;;17.49;64.47;100599.19;7369018;19;20035;-61
2022/08/20 05:50:21;;;;;;;0.00;0.00;;;;;;;17.50;64.06;100600.88;7368381;19;20006;-62
2022/08/20 05:52:47;;;;;;;0.00;0.00;;;;;;;17.52;64.62;100599.00;7365635;19;20014;-62
2022/08/20 05:55:12;;;;;;;0.00;0.00;;;;;;;17.42;64.57;100576.66;7367816;19;20006;-62
2022/08/20 05:57:39;;;;;;;0.00;0.00;;;;;;;17.52;64.24;100589.28;7361780;19;20014;-61
2022/08/20 06:00:10;;;;;;;0.00;0.00;;;;;;;17.58;63.86;100594.22;7364845;19;20122;-62
2022/08/20 06:05:19;;;;;;;0.00;0.00;;;;;;;17.61;63.87;100593.22;7364185;19;20032;-62
2022/08/20 06:07:45;;;;;;;0.00;0.00;;;;;;;17.61;64.39;100588.78;7365408;19;20481;-61
2022/08/20 06:10:11;;;;;;;0.00;0.00;;;;;;;17.66;64.35;100601.75;7365880;19;20026;-61
2022/08/20 06:12:37;;;;;;;0.00;0.00;;;;;;;17.67;64.05;100598.16;7364543;19;20049;-62
2022/08/20 06:15:04;;;;;;;0.00;0.00;;;;;;;17.71;64.32;100593.59;7364774;19;20372;-62
2022/08/20 06:17:32;;;;;;;0.10;0.10;;;;;;;17.64;64.21;100591.28;7364422;19;20142;-62
2022/08/20 06:20:01;;;;;;;0.00;0.00;;;;;;;17.79;63.72;100594.91;7363112;19;20017;-62
2022/08/20 06:22:26;;;;;;;0.00;0.00;;;;;;;17.79;64.30;100597.56;7365898;19;20407;-61
2022/08/20 06:24:51;;;;;;;0.00;0.00;;;;;;;17.82;63.95;100602.66;7367137;19;20045;-62
2022/08/20 06:27:18;;;;;;;0.00;0.00;;;;;;;17.85;64.02;100599.88;7364790;19;20021;-62
2022/08/20 06:29:44;;;;;;;0.00;0.00;;;;;;;17.83;64.28;100588.50;7366064;19;20037;-62
2022/08/20 06:32:10;;;;;;;0.00;0.00;;;;;;;17.89;63.85;100592.59;7364279;19;20006;-62
2022/08/20 06:34:35;;;;;;;0.00;0.00;;;;;;;17.89;64.16;100593.47;7366578;19;20026;-62
2022/08/20 06:37:01;;;;;;;0.00;0.00;;;;;;;17.92;64.11;100594.25;7363933;19;20498;-62
2022/08/20 06:39:29;;;;;;;0.00;0.00;;;;;;;17.91;63.84;100579.31;7365347;19;20048;-62
2022/08/20 06:41:57;;;;;;;0.00;0.00;;;;;;;17.91;63.98;100587.25;7364955;19;20006;-61
2022/08/20 06:44:23;;;;;;;;;;;;;;;17.98;62.48;100600.03;7366986;19;20351;-62
2022/08/20 06:46:48;;;;;;;0.00;0.00;;;;;;;17.93;63.77;100596.78;7363912;19;19990;-62
2022/08/20 06:49:13;;;;;;;0.00;0.00;;;;;;;17.95;63.44;100594.09;7365127;19;20018;-61
2022/08/20 06:51:39;;;;;;;0.00;0.00;;;;;;;17.94;63.35;100598.47;7363184;19;20759;-62
2022/08/20 06:54:04;;;;;;;0.00;0.00;;;;;;;17.94;63.59;100595.00;7364873;19;20010;-62
2022/08/20 06:56:32;;;;;;;0.00;0.00;;;;;;;17.96;63.62;100604.56;7365867;19;20010;-61
2022/08/20 06:58:58;;;;;;;0.00;0.00;;;;;;;17.96;63.60;100603.72;7364491;19;20598;-62
2022/08/20 07:01:24;;;;;;;0.00;0.00;;;;;;;18.00;63.39;100589.41;7363635;19;20014;-61
2022/08/20 07:03:50;;;;;;;0.00;0.00;;;;;;;18.01;63.53;100601.66;7362499;19;20018;-61
2022/08/20 07:06:16;;;;;;;0.00;0.00;;;;;;;18.03;63.32;100597.13;7363645;19;20500;-62
2022/08/20 07:08:42;;;;;;;0.00;0.00;;;;;;;18.04;63.02;100590.91;7365344;19;20016;-62
2022/08/20 07:11:09;;;;;;;0.00;0.00;;;;;;;18.06;63.07;100589.06;7362883;19;20074;-62
2022/08/20 07:13:40;;;;;;;0.00;0.00;;;;;;;18.05;63.38;100576.78;7362436;19;20022;-62
2022/08/20 07:16:06;;;;;;;0.00;0.00;;;;;;;17.97;63.09;100573.69;7364134;19;20015;-62
2022/08/20 07:18:31;;;;;;;0.00;0.00;;;;;;;18.06;63.36;100587.25;7363838;19;21625;-62
2022/08/20 07:20:57;;;;;;;0.00;0.00;;;;;;;18.07;63.16;100606.59;7362588;19;20010;-61
2022/08/20 07:23:23;;;;;;;0.00;0.00;;;;;;;18.03;63.32;100581.28;7364066;19;20010;-62
2022/08/20 07:25:49;;;;;;;0.00;0.00;;;;;;;18.00;63.32;100573.53;7364131;19;20798;-62
2022/08/20 07:28:21;;;;;;;0.00;0.00;;;;;;;18.11;63.41;100592.28;7363888;19;20045;-62
2022/08/20 07:33:31;;;;;;;0.00;0.00;;;;;;;18.14;63.25;100586.81;7363562;19;20614;-62
2022/08/20 07:35:59;;;;;;;0.00;0.00;;;;;;;18.17;62.75;100591.09;7363634;19;20072;-62
2022/08/20 07:38:26;;;;;;;0.00;0.00;;;;;;;18.16;62.83;100579.66;7363300;19;20047;-62
2022/08/20 07:40:54;;;;;;;0.00;0.00;;;;;;;18.19;62.44;100587.41;7363206;19;20121;-61
2022/08/20 07:43:22;;;;;;;0.00;0.00;;;;;;;18.20;62.38;100602.34;7362390;19;20010;-62
2022/08/20 07:45:49;;;;;;;0.00;0.00;;;;;;;18.19;63.17;100595.34;7362119;19;20031;-62
2022/08/20 07:48:15;;;;;;;0.05;0.05;;;;;;;18.22;63.37;100594.31;7362359;19;20038;-61
2022/08/20 07:50:41;;;;;;;0.00;0.00;;;;;;;18.27;63.14;100601.06;7360560;19;20637;-61
2022/08/20 07:53:07;;;;;;;0.00;0.00;;;;;;;18.36;63.45;100591.75;7361307;19;20031;-61
2022/08/20 07:55:32;;;;;;;0.00;0.00;;;;;;;18.47;64.01;100597.28;7362597;19;20014;-61
2022/08/20 07:58:06;;;;;;;0.00;0.00;;;;;;;18.67;62.79;100604.94;7362117;19;20010;-61
2022/08/20 08:00:31;;;;;;;0.00;0.00;;;;;;;18.78;62.65;100593.75;7360563;19;20090;-62
2022/08/20 08:02:57;;;;;;;0.00;0.00;;;;;;;18.92;62.31;100596.44;7361827;19;20530;-61
2022/08/20 08:05:22;;;;;;;0.00;0.00;;;;;;;19.05;61.27;100590.41;7359278;19;20006;-62
2022/08/20 08:07:48;;;;;;;0.00;0.00;;;;;;;19.13;60.89;100588.16;7354660;19;20078;-62
2022/08/20 08:10:18;;;;;;;0.10;0.10;;;;;;;19.21;60.77;100588.56;7361303;19;20006;-62
2022/08/20 08:12:48;;;;;;;0.08;0.08;;;;;;;19.31;60.79;100597.66;7361878;19;20019;-62
2022/08/20 08:15:21;;;;;;;0.10;0.10;;;;;;;19.35;60.37;100572.66;7360645;19;20078;-62
2022/08/20 08:17:48;;;;;;;0.10;0.10;;;;;;;19.35;60.33;100577.97;7370520;19;20028;-62
2022/08/20 08:20:14;;;;;;;0.08;0.08;;;;;;;19.52;59.80;100590.19;7368131;19;20040;-61
2022/08/20 08:22:41;;;;;;;0.00;0.00;;;;;;;19.59;59.25;100590.66;7369431;19;20014;-62
2022/08/20 08:25:10;;;;;;;0.00;0.00;;;;;;;19.67;59.03;100583.13;7367551;19;20011;-61
2022/08/20 08:27:35;;;;;;;0.00;0.00;;;;;;;19.73;58.92;100582.75;7364159;19;20965;-62
2022/08/20 08:30:02;;;;;;;0.05;0.05;;;;;;;19.72;58.51;100590.75;7369943;19;20109;-61
2022/08/20 08:32:30;;;;;;;0.00;0.00;;;;;;;19.75;58.76;100583.47;7367647;19;20019;-61
2022/08/20 08:34:58;;;;;;;0.00;0.00;;;;;;;19.79;58.54;100574.41;7369689;19;20035;-62
2022/08/20 08:37:23;;;;;;;0.08;0.08;;;;;;;19.96;58.25;100594.53;7368853;19;20018;-61
2022/08/20 08:39:49;;;;;;;0.00;0.00;;;;;;;20.02;58.45;100587.97;7368210;19;20022;-62
2022/08/20 08:42:24;;;;;;;0.08;0.08;;;;;;;20.15;57.81;100594.22;7369626;19;20419;-61
2022/08/20 08:44:50;;;;;;;0.10;0.10;;;;;;;20.18;57.19;100572.81;7368865;19;20010;-62
2022/08/20 08:47:29;;;;;;;0.00;0.00;;;;;;;20.30;57.79;100595.88;7369118;19;20114;-62
2022/08/20 08:49:56;;;;;;;0.10;0.10;;;;;;;20.31;56.57;100605.53;7368865;19;20104;-61
2022/08/20 08:52:27;;;;;;;0.10;0.10;;;;;;;20.37;56.77;100597.16;7367388;19;20026;-62
2022/08/20 08:54:57;;;;;;;0.05;0.05;;;;;;;20.45;56.69;100586.06;7366550;19;20335;-61
2022/08/20 08:57:23;;;;;;;0.00;0.00;;;;;;;20.56;56.52;100577.44;7368277;19;20026;-62
2022/08/20 08:59:55;;;;;;;0.00;0.00;;;;;;;20.75;56.43;100571.75;7369762;19;20003;-62
2022/08/20 09:02:24;;;;;;;0.10;0.10;;;;;;;20.88;55.76;100599.16;7367995;19;20006;-62
2022/08/20 09:04:55;;;;;;;0.10;0.10;;;;;;;21.01;55.67;100584.09;7368176;19;20014;-62
2022/08/20 09:07:23;;;;;;;0.00;0.00;;;;;;;21.16;54.40;100587.53;7368330;19;20075;-62
2022/08/20 09:09:50;;;;;;;0.00;0.00;;;;;;;21.16;54.79;100582.22;7368819;19;20470;-60
2022/08/20 09:12:19;;;;;;;0.10;0.10;;;;;;;21.33;54.69;100568.63;7368729;19;20010;-62
2022/08/20 09:14:47;;;;;;;0.00;0.00;;;;;;;21.37;53.87;100580.75;7368546;19;20741;-62
2022/08/20 09:17:13;;;;;;;0.00;0.00;;;;;;;21.44;53.82;100578.50;7366612;19;20027;-61
2022/08/20 09:19:39;;;;;;;0.00;0.00;;;;;;;21.47;53.77;100589.78;7367591;19;20007;-62
2022/08/20 09:22:15;;;;;;;0.00;0.00;;;;;;;21.59;53.77;100593.38;7367166;19;20113;-62
2022/08/20 09:24:41;;;;;;;0.10;0.10;;;;;;;21.56;52.88;100590.94;7368614;19;20010;-61
2022/08/20 09:27:08;;;;;;;0.10;0.10;;;;;;;21.50;52.86;100568.31;7365542;19;21156;-62
2022/08/20 09:29:34;;;;;;;0.00;0.00;;;;;;;21.60;52.87;100580.97;7366978;19;20111;-62
2022/08/20 09:32:21;;;;;;;0.05;0.05;;;;;;;21.71;54.55;100583.69;7366253;19;20027;-62
2022/08/20 09:34:50;;;;;;;0.10;0.10;;;;;;;21.73;52.49;100597.72;7364848;19;20028;-62
2022/08/20 09:37:16;;;;;;;0.00;0.00;;;;;;;21.81;52.02;100583.91;7367611;19;20339;-62
2022/08/20 09:39:42;;;;;;;0.00;0.00;;;;;;;21.89;51.84;100598.31;7367834;19;20017;-60
2022/08/20 09:42:15;;;;;;;0.00;0.00;;;;;;;21.95;51.94;100571.31;7368033;19;20018;-62
2022/08/20 09:44:41;;;;;;;0.03;0.03;;;;;;;21.90;51.02;100609.84;7367175;19;20015;-62
2022/08/20 09:47:07;;;;;;;0.05;0.05;;;;;;;21.78;51.92;100558.38;7367188;19;20062;-62
2022/08/20 09:49:33;;;;;;;0.00;0.00;;;;;;;21.87;51.89;100570.16;7368374;19;20019;-62
2022/08/20 09:52:00;;;;;;;0.10;0.10;;;;;;;21.89;51.97;100574.41;7365963;19;20022;-62
2022/08/20 09:54:28;;;;;;;;;;;;;;;21.98;53.10;100573.75;7368376;19;20017;-62
2022/08/20 09:56:58;;;;;;;0.00;0.00;;;;;;;21.98;51.56;100572.88;7365857;19;20607;-62
2022/08/20 09:59:24;;;;;;;0.00;0.00;;;;;;;22.06;51.72;100561.72;7367914;19;20014;-61
2022/08/20 10:01:49;;;;;;;0.00;0.00;;;;;;;22.21;51.67;100549.97;7366213;19;20010;-62
2022/08/20 10:04:15;;;;;;;0.10;0.10;;;;;;;22.41;52.30;100545.84;7367310;19;20388;-62
2022/08/20 10:06:41;;;;;;;0.00;0.00;;;;;;;22.75;50.81;100557.44;7364519;19;20018;-60
2022/08/20 10:09:06;;;;;;;0.00;0.00;;;;;;;22.98;50.26;100553.91;7368630;19;20018;-62
2022/08/20 10:11:32;;;;;;;0.00;0.00;;;;;;;23.10;49.10;100572.56;7365141;19;20021;-62
2022/08/20 10:13:57;;;;;;;0.08;0.08;;;;;;;23.17;49.48;100563.16;7368376;19;20006;-62
2022/08/20 10:16:23;;;;;;;0.00;0.00;;;;;;;23.28;49.70;100563.16;7366977;19;20768;-62
2022/08/20 10:18:48;;;;;;;0.10;0.10;;;;;;;23.35;48.61;100558.19;7361569;19;20690;-62
2022/08/20 10:21:15;;;;;;;0.00;0.00;;;;;;;23.56;49.16;100562.66;7365506;19;20011;-62
2022/08/20 10:23:41;;;;;;;0.10;0.10;;;;;;;23.75;48.15;100563.91;7365569;19;20643;-62
2022/08/20 10:26:10;;;;;;;0.00;0.00;;;;;;;23.93;48.12;100565.13;7364782;19;20011;-62
2022/08/20 10:28:36;;;;;;;0.00;0.00;;;;;;;24.10;45.83;100544.22;7366393;19;20459;-62
2022/08/20 10:31:03;;;;;;;0.10;0.10;;;;;;;24.12;46.32;100548.44;7366799;19;20039;-62
2022/08/20 10:33:28;;;;;;;0.10;0.10;;;;;;;24.11;46.30;100535.22;7367064;19;19999;-61
2022/08/20 10:35:54;;;;;;;0.10;0.10;;;;;;;24.23;46.37;100550.22;7367017;19;20034;-62
2022/08/20 10:38:19;;;;;;;0.00;0.00;;;;;;;24.38;45.01;100557.03;7366363;19;20023;-62
2022/08/20 10:40:45;;;;;;;0.00;0.00;;;;;;;24.53;44.50;100555.75;7367191;19;20090;-61
2022/08/20 10:43:10;;;;;;;0.00;0.00;;;;;;;24.53;44.23;100550.41;7368239;19;20012;-62
2022/08/20 10:45:35;;;;;;;0.10;0.10;;;;;;;24.56;43.71;100574.16;7366377;19;20017;-61
2022/08/20 10:48:01;;;;;;;0.00;0.00;;;;;;;24.51;44.14;100552.34;7365982;19;20006;-61
2022/08/20 10:50:27;;;;;;;0.00;0.00;;;;;;;24.54;44.26;100560.09;7366124;19;20003;-61
2022/08/20 10:52:52;;;;;;;0.08;0.08;;;;;;;24.60;44.20;100532.03;7367699;19;20007;-61
2022/08/20 10:55:18;;;;;;;0.10;0.10;;;;;;;24.78;43.01;100532.28;7365796;19;20006;-61
2022/08/20 10:57:44;;;;;;;0.00;0.00;;;;;;;25.01;42.33;100536.53;7366501;19;20011;-62
2022/08/20 11:00:13;;;;;;;0.10;0.10;;;;;;;25.22;42.46;100552.56;7367621;19;20549;-61
2022/08/20 11:02:39;;;;;;;0.00;0.00;;;;;;;25.18;41.56;100550.28;7366478;19;20006;-62
2022/08/20 11:05:05;;;;;;;0.10;0.10;;;;;;;25.07;42.18;100533.34;7367007;19;20122;-62
2022/08/20 11:07:37;;;;;;;0.00;0.00;;;;;;;25.15;42.56;100537.22;7365283;19;20014;-61
2022/08/20 11:10:06;;;;;;;0.10;0.10;;;;;;;25.16;42.66;100549.59;7366172;19;20011;-62
2022/08/20 11:12:32;;;;;;;0.00;0.00;;;;;;;25.25;41.67;100552.31;7364730;19;20032;-61
2022/08/20 11:14:57;;;;;;;0.00;0.00;;;;;;;25.41;41.93;100543.81;7365275;19;20006;-62
2022/08/20 11:17:25;;;;;;;0.10;0.10;;;;;;;25.58;40.64;100537.81;7364677;19;20017;-62
2022/08/20 11:19:51;;;;;;;0.03;0.03;;;;;;;25.62;40.38;100539.22;7365788;19;20141;-61
2022/08/20 11:22:17;;;;;;;0.00;0.00;;;;;;;25.61;40.86;100540.22;7365951;19;20518;-62
2022/08/20 11:24:43;;;;;;;0.00;0.00;;;;;;;25.55;40.58;100540.78;7365222;19;20106;-61
2022/08/20 11:27:09;;;;;;;0.10;0.10;;;;;;;25.49;41.17;100541.28;7363513;19;20085;-62
2022/08/20 11:29:36;;;;;;;0.10;0.10;;;;;;;25.59;41.07;100546.66;7365165;19;20018;-61
2022/08/20 11:32:04;;;;;;;0.10;0.10;;;;;;;25.75;41.01;100520.31;7364178;19;20021;-62
2022/08/20 11:34:29;;;;;;;;;;;;;;;26.10;41.59;100530.53;7366193;19;20464;-61
2022/08/20 11:36:56;;;;;;;0.10;0.10;;;;;;;26.19;40.05;100531.50;7364340;19;19922;-61